createdAt,value
2017-02-15T00:00:27.018Z,-0.67
2017-02-15T00:01:07.647Z,-0.67
2017-02-15T00:01:48.315Z,-0.65
2017-02-15T00:02:28.976Z,-0.68
2017-02-15T00:03:09.624Z,-0.72
2017-02-15T00:03:50.307Z,-0.67
2017-02-15T00:04:30.913Z,-0.72
2017-02-15T00:05:11.582Z,-0.68
2017-02-15T00:05:52.249Z,-0.68
2017-02-15T00:06:32.883Z,-0.61
2017-02-15T00:07:13.542Z,-0.65
2017-02-15T00:07:54.194Z,-0.67
2017-02-15T00:08:34.827Z,-0.64
2017-02-15T00:09:15.501Z,-0.68
2017-02-15T00:09:56.152Z,-0.64
2017-02-15T00:10:36.812Z,-0.7
2017-02-15T00:11:17.465Z,-0.7
2017-02-15T00:11:58.109Z,-0.75
2017-02-15T00:12:38.765Z,-0.67
2017-02-15T00:13:19.416Z,-0.67
2017-02-15T00:14:00.072Z,-0.74
2017-02-15T00:14:40.716Z,-0.71
2017-02-15T00:15:21.382Z,-0.68
2017-02-15T00:16:02.028Z,-0.72
2017-02-15T00:16:42.661Z,-0.82
2017-02-15T00:17:23.236Z,-0.71
2017-02-15T00:18:03.888Z,-0.78
2017-02-15T00:18:44.517Z,-0.72
2017-02-15T00:19:25.092Z,-0.78
2017-02-15T00:20:05.748Z,-0.77
2017-02-15T00:20:46.374Z,-0.74
2017-02-15T00:21:27.027Z,-0.75
2017-02-15T00:22:07.682Z,-0.85
2017-02-15T00:22:48.330Z,-0.83
2017-02-15T00:23:28.987Z,-0.82
2017-02-15T00:24:09.635Z,-0.77
2017-02-15T00:24:50.290Z,-0.78
2017-02-15T00:25:30.941Z,-0.8
2017-02-15T00:26:11.510Z,-0.83
2017-02-15T00:26:52.167Z,-0.86
2017-02-15T00:27:32.797Z,-0.9
2017-02-15T00:28:13.390Z,-0.8
2017-02-15T00:28:54.028Z,-0.85
2017-02-15T00:29:34.655Z,-0.89
2017-02-15T00:30:15.234Z,-0.86
2017-02-15T00:30:55.878Z,-0.89
2017-02-15T00:31:36.513Z,-0.86
2017-02-15T00:32:17.079Z,-0.85
2017-02-15T00:32:57.736Z,-0.82
2017-02-15T00:33:38.366Z,-0.82
2017-02-15T00:34:18.946Z,-0.89
2017-02-15T00:34:59.586Z,-0.91
2017-02-15T00:35:40.223Z,-0.9
2017-02-15T00:36:20.774Z,-0.86
2017-02-15T00:37:01.458Z,-0.86
2017-02-15T00:37:42.108Z,-0.83
2017-02-15T00:38:22.767Z,-0.91
2017-02-15T00:39:03.413Z,-0.89
2017-02-15T00:39:46.013Z,-0.97
2017-02-15T00:40:26.656Z,-0.96
2017-02-15T00:41:07.307Z,-0.93
2017-02-15T00:41:47.993Z,-0.97
2017-02-15T00:42:28.622Z,-0.9
2017-02-15T00:43:09.283Z,-0.93
2017-02-15T00:43:49.928Z,-0.97
2017-02-15T00:44:30.605Z,-1.01
2017-02-15T00:45:11.231Z,-1.01
2017-02-15T00:45:51.988Z,-0.99
2017-02-15T00:46:32.633Z,-0.97
2017-02-15T00:47:13.287Z,-0.94
2017-02-15T00:47:53.946Z,-1.02
2017-02-15T00:48:34.602Z,-0.94
2017-02-15T00:49:15.249Z,-0.94
2017-02-15T00:49:55.902Z,-0.99
2017-02-15T00:50:36.557Z,-0.9
2017-02-15T00:51:17.217Z,-0.91
2017-02-15T00:51:57.868Z,-0.91
2017-02-15T00:52:38.520Z,-0.99
2017-02-15T00:53:19.174Z,-0.94
2017-02-15T00:53:59.816Z,-0.96
2017-02-15T00:54:40.472Z,-0.94
2017-02-15T00:55:21.126Z,-0.99
2017-02-15T00:56:01.780Z,-0.94
2017-02-15T00:56:42.418Z,-0.93
2017-02-15T00:57:22.984Z,-0.94
2017-02-15T00:58:03.628Z,-0.99
2017-02-15T00:58:44.270Z,-0.91
2017-02-15T00:59:24.835Z,-0.91
2017-02-15T01:00:05.493Z,-0.9
2017-02-15T01:00:46.126Z,-0.89
2017-02-15T01:01:26.706Z,-0.9
2017-02-15T01:02:07.350Z,-0.99
2017-02-15T01:02:47.999Z,-0.97
2017-02-15T01:03:28.661Z,-0.9
2017-02-15T01:04:09.309Z,-0.89
2017-02-15T01:04:49.968Z,-0.94
2017-02-15T01:05:30.612Z,-0.99
2017-02-15T01:06:11.267Z,-0.96
2017-02-15T01:06:51.930Z,-1.01
2017-02-15T01:07:32.571Z,-0.99
2017-02-15T01:08:13.222Z,-0.96
2017-02-15T01:08:53.881Z,-0.96
2017-02-15T01:09:34.539Z,-0.93
2017-02-15T01:10:15.184Z,-0.96
2017-02-15T01:10:55.867Z,-0.99
2017-02-15T01:11:36.487Z,-1.05
2017-02-15T01:12:17.151Z,-1.01
2017-02-15T01:12:57.791Z,-0.94
2017-02-15T01:13:38.448Z,-1.11
2017-02-15T01:14:19.099Z,-1.14
2017-02-15T01:15:00.675Z,-1.12
2017-02-15T01:15:41.302Z,-1.05
2017-02-15T01:16:21.888Z,-1.09
2017-02-15T01:17:02.530Z,-1.02
2017-02-15T01:17:43.118Z,-1.09
2017-02-15T01:18:23.720Z,-1.08
2017-02-15T01:19:04.335Z,-1.12
2017-02-15T01:19:44.936Z,-1.11
2017-02-15T01:20:25.535Z,-1.14
2017-02-15T01:21:06.227Z,-1.07
2017-02-15T01:21:46.803Z,-1.17
2017-02-15T01:22:27.445Z,-1.09
2017-02-15T01:23:08.094Z,-1.11
2017-02-15T01:23:48.752Z,-1.17
2017-02-15T01:24:29.407Z,-1.12
2017-02-15T01:25:10.073Z,-1.04
2017-02-15T01:25:50.709Z,-1.15
2017-02-15T01:26:31.361Z,-1.05
2017-02-15T01:27:12.013Z,-1.12
2017-02-15T01:27:52.666Z,-0.99
2017-02-15T01:28:33.329Z,-1.12
2017-02-15T01:29:13.973Z,-1.14
2017-02-15T01:29:55.651Z,-1.07
2017-02-15T01:30:36.302Z,-1.12
2017-02-15T01:31:16.957Z,-1.07
2017-02-15T01:31:57.607Z,-1.14
2017-02-15T01:32:38.263Z,-1.15
2017-02-15T01:33:18.913Z,-1.07
2017-02-15T01:33:59.566Z,-1.09
2017-02-15T01:34:40.241Z,-1.09
2017-02-15T01:35:20.873Z,-1.17
2017-02-15T01:36:01.527Z,-1.08
2017-02-15T01:36:42.165Z,-1.25
2017-02-15T01:37:22.751Z,-1.15
2017-02-15T01:38:03.380Z,-1.22
2017-02-15T01:38:44.034Z,-1.25
2017-02-15T01:39:24.691Z,-1.14
2017-02-15T01:40:05.343Z,-1.25
2017-02-15T01:40:45.980Z,-1.2
2017-02-15T01:41:26.544Z,-1.2
2017-02-15T01:42:07.197Z,-1.2
2017-02-15T01:42:47.845Z,-1.09
2017-02-15T01:43:28.506Z,-1.12
2017-02-15T01:44:09.150Z,-1.25
2017-02-15T01:44:49.808Z,-1.26
2017-02-15T01:45:30.459Z,-1.23
2017-02-15T01:46:12.135Z,-1.23
2017-02-15T01:46:52.788Z,-1.19
2017-02-15T01:47:33.445Z,-1.11
2017-02-15T01:48:14.093Z,-1.15
2017-02-15T01:48:54.739Z,-1.19
2017-02-15T01:49:35.397Z,-1.26
2017-02-15T01:50:16.064Z,-1.15
2017-02-15T01:50:56.707Z,-1.22
2017-02-15T01:51:37.363Z,-1.2
2017-02-15T01:52:17.967Z,-1.19
2017-02-15T01:52:58.549Z,-1.15
2017-02-15T01:53:39.113Z,-1.23
2017-02-15T01:54:19.774Z,-1.23
2017-02-15T01:55:00.369Z,-1.25
2017-02-15T01:55:40.954Z,-1.25
2017-02-15T01:56:21.521Z,-1.22
2017-02-15T01:57:02.173Z,-1.23
2017-02-15T01:57:42.771Z,-1.29
2017-02-15T01:58:23.364Z,-1.37
2017-02-15T01:59:03.942Z,-1.2
2017-02-15T01:59:44.568Z,-1.29
2017-02-15T02:00:25.162Z,-1.3
2017-02-15T02:01:05.768Z,-1.25
2017-02-15T02:01:46.349Z,-1.29
2017-02-15T02:02:26.994Z,-1.23
2017-02-15T02:03:07.575Z,-1.32
2017-02-15T02:03:48.281Z,-1.29
2017-02-15T02:04:28.851Z,-1.22
2017-02-15T02:05:09.504Z,-1.29
2017-02-15T02:05:50.085Z,-1.32
2017-02-15T02:06:30.652Z,-1.3
2017-02-15T02:07:11.264Z,-1.33
2017-02-15T02:07:51.885Z,-1.35
2017-02-15T02:08:32.458Z,-1.32
2017-02-15T02:09:13.106Z,-1.33
2017-02-15T02:09:53.743Z,-1.37
2017-02-15T02:10:34.310Z,-1.32
2017-02-15T02:11:14.972Z,-1.29
2017-02-15T02:11:55.600Z,-1.41
2017-02-15T02:12:36.253Z,-1.4
2017-02-15T02:13:16.905Z,-1.46
2017-02-15T02:13:57.558Z,-1.38
2017-02-15T02:14:38.212Z,-1.35
2017-02-15T02:15:18.867Z,-1.43
2017-02-15T02:15:59.518Z,-1.47
2017-02-15T02:16:40.098Z,-1.4
2017-02-15T02:17:20.737Z,-1.43
2017-02-15T02:18:01.342Z,-1.37
2017-02-15T02:18:42.030Z,-1.35
2017-02-15T02:19:22.593Z,-1.41
2017-02-15T02:20:03.247Z,-1.38
2017-02-15T02:20:43.921Z,-1.43
2017-02-15T02:21:24.501Z,-1.4
2017-02-15T02:22:05.148Z,-1.4
2017-02-15T02:22:45.796Z,-1.41
2017-02-15T02:23:26.449Z,-1.47
2017-02-15T02:24:07.105Z,-1.44
2017-02-15T02:24:47.750Z,-1.5
2017-02-15T02:25:28.420Z,-1.5
2017-02-15T02:26:09.069Z,-1.51
2017-02-15T02:26:49.759Z,-1.51
2017-02-15T02:27:30.327Z,-1.46
2017-02-15T02:28:10.988Z,-1.5
2017-02-15T02:28:51.678Z,-1.46
2017-02-15T02:29:32.266Z,-1.46
2017-02-15T02:30:12.830Z,-1.47
2017-02-15T02:30:53.505Z,-1.5
2017-02-15T02:31:34.082Z,-1.47
2017-02-15T02:32:14.682Z,-1.43
2017-02-15T02:32:55.240Z,-1.48
2017-02-15T02:33:35.912Z,-1.48
2017-02-15T02:34:16.488Z,-1.54
2017-02-15T02:34:57.077Z,-1.41
2017-02-15T02:35:37.648Z,-1.5
2017-02-15T02:36:18.297Z,-1.41
2017-02-15T02:36:58.877Z,-1.46
2017-02-15T02:37:39.486Z,-1.48
2017-02-15T02:38:20.053Z,-1.47
2017-02-15T02:39:00.704Z,-1.56
2017-02-15T02:39:41.302Z,-1.47
2017-02-15T02:40:21.894Z,-1.47
2017-02-15T02:41:02.459Z,-1.56
2017-02-15T02:41:43.116Z,-1.53
2017-02-15T02:42:23.709Z,-1.61
2017-02-15T02:43:04.298Z,-1.53
2017-02-15T02:43:44.867Z,-1.59
2017-02-15T02:44:25.528Z,-1.48
2017-02-15T02:45:06.112Z,-1.61
2017-02-15T02:45:46.706Z,-1.54
2017-02-15T02:46:27.279Z,-1.59
2017-02-15T02:47:07.945Z,-1.59
2017-02-15T02:47:48.548Z,-1.58
2017-02-15T02:48:29.174Z,-1.58
2017-02-15T02:49:09.829Z,-1.59
2017-02-15T02:49:50.545Z,-1.61
2017-02-15T02:50:31.160Z,-1.54
2017-02-15T02:51:11.786Z,-1.58
2017-02-15T02:51:52.465Z,-1.47
2017-02-15T02:52:33.119Z,-1.51
2017-02-15T02:53:13.762Z,-1.48
2017-02-15T02:53:54.418Z,-1.44
2017-02-15T02:54:35.081Z,-1.53
2017-02-15T02:55:15.714Z,-1.54
2017-02-15T02:55:56.381Z,-1.5
2017-02-15T02:56:37.029Z,-1.51
2017-02-15T02:57:17.717Z,-1.48
2017-02-15T02:57:58.319Z,-1.58
2017-02-15T02:58:38.868Z,-1.53
2017-02-15T02:59:19.538Z,-1.53
2017-02-15T03:00:00.221Z,-1.61
2017-02-15T03:00:41.846Z,-1.46
2017-02-15T03:01:22.396Z,-1.48
2017-02-15T03:02:03.048Z,-1.47
2017-02-15T03:02:43.701Z,-1.53
2017-02-15T03:03:24.256Z,-1.5
2017-02-15T03:04:04.936Z,-1.5
2017-02-15T03:04:45.559Z,-1.53
2017-02-15T03:05:26.120Z,-1.46
2017-02-15T03:06:06.764Z,-1.5
2017-02-15T03:06:47.413Z,-1.5
2017-02-15T03:07:27.967Z,-1.53
2017-02-15T03:08:08.620Z,-1.53
2017-02-15T03:08:49.270Z,-1.62
2017-02-15T03:09:29.848Z,-1.54
2017-02-15T03:10:10.488Z,-1.53
2017-02-15T03:10:51.127Z,-1.53
2017-02-15T03:11:31.707Z,-1.61
2017-02-15T03:12:12.337Z,-1.54
2017-02-15T03:12:52.934Z,-1.53
2017-02-15T03:13:33.536Z,-1.54
2017-02-15T03:14:14.107Z,-1.5
2017-02-15T03:14:54.749Z,-1.58
2017-02-15T03:15:35.351Z,-1.54
2017-02-15T03:16:15.923Z,-1.54
2017-02-15T03:16:56.600Z,-1.65
2017-02-15T03:17:37.261Z,-1.5
2017-02-15T03:18:17.900Z,-1.53
2017-02-15T03:18:59.481Z,-1.53
2017-02-15T03:19:40.131Z,-1.58
2017-02-15T03:20:20.787Z,-1.56
2017-02-15T03:21:01.438Z,-1.62
2017-02-15T03:21:41.988Z,-1.58
2017-02-15T03:22:22.660Z,-1.64
2017-02-15T03:23:03.291Z,-1.65
2017-02-15T03:23:43.857Z,-1.48
2017-02-15T03:24:24.515Z,-1.54
2017-02-15T03:25:05.151Z,-1.58
2017-02-15T03:25:45.767Z,-1.48
2017-02-15T03:26:26.374Z,-1.53
2017-02-15T03:27:07.011Z,-1.66
2017-02-15T03:27:47.553Z,-1.61
2017-02-15T03:28:28.239Z,-1.61
2017-02-15T03:29:08.916Z,-1.62
2017-02-15T03:29:49.519Z,-1.61
2017-02-15T03:30:30.077Z,-1.64
2017-02-15T03:31:10.738Z,-1.56
2017-02-15T03:31:51.323Z,-1.58
2017-02-15T03:32:31.922Z,-1.61
2017-02-15T03:33:12.521Z,-1.61
2017-02-15T03:33:53.141Z,-1.61
2017-02-15T03:34:33.729Z,-1.65
2017-02-15T03:35:14.329Z,-1.71
2017-02-15T03:35:54.902Z,-1.61
2017-02-15T03:36:35.541Z,-1.65
2017-02-15T03:37:16.213Z,-1.66
2017-02-15T03:37:56.866Z,-1.69
2017-02-15T03:38:37.520Z,-1.71
2017-02-15T03:39:18.159Z,-1.68
2017-02-15T03:39:58.806Z,-1.68
2017-02-15T03:40:39.467Z,-1.69
2017-02-15T03:41:20.111Z,-1.71
2017-02-15T03:42:01.687Z,-1.68
2017-02-15T03:42:42.360Z,-1.66
2017-02-15T03:43:23.012Z,-1.68
2017-02-15T03:44:03.665Z,-1.68
2017-02-15T03:44:44.311Z,-1.69
2017-02-15T03:45:24.963Z,-1.66
2017-02-15T03:46:06.641Z,-1.66
2017-02-15T03:46:48.316Z,-1.71
2017-02-15T03:47:29.931Z,-1.69
2017-02-15T03:48:10.525Z,-1.65
2017-02-15T03:48:51.101Z,-1.74
2017-02-15T03:49:31.748Z,-1.69
2017-02-15T03:50:12.432Z,-1.77
2017-02-15T03:50:53.035Z,-1.76
2017-02-15T03:51:33.590Z,-1.8
2017-02-15T03:52:14.256Z,-1.8
2017-02-15T03:52:54.837Z,-1.8
2017-02-15T03:53:35.444Z,-1.8
2017-02-15T03:54:16.039Z,-1.8
2017-02-15T03:54:56.673Z,-1.84
2017-02-15T03:55:37.360Z,-1.82
2017-02-15T03:56:17.951Z,-1.8
2017-02-15T03:56:58.602Z,-1.8
2017-02-15T03:57:39.256Z,-1.79
2017-02-15T03:58:19.909Z,-1.83
2017-02-15T03:59:00.504Z,-1.83
2017-02-15T03:59:41.156Z,-1.8
2017-02-15T04:00:21.811Z,-1.82
2017-02-15T04:01:02.459Z,-1.86
2017-02-15T04:01:43.010Z,-1.79
2017-02-15T04:02:23.682Z,-1.83
2017-02-15T04:03:04.335Z,-1.82
2017-02-15T04:03:44.989Z,-1.8
2017-02-15T04:04:25.649Z,-1.84
2017-02-15T04:05:06.288Z,-1.77
2017-02-15T04:05:46.939Z,-1.77
2017-02-15T04:06:27.605Z,-1.76
2017-02-15T04:07:08.183Z,-1.77
2017-02-15T04:07:48.787Z,-1.84
2017-02-15T04:08:29.339Z,-1.8
2017-02-15T04:09:09.999Z,-1.79
2017-02-15T04:09:50.603Z,-1.84
2017-02-15T04:10:31.193Z,-1.76
2017-02-15T04:11:11.747Z,-1.83
2017-02-15T04:11:52.416Z,-1.83
2017-02-15T04:12:34.028Z,-1.74
2017-02-15T04:13:14.625Z,-1.8
2017-02-15T04:13:55.188Z,-1.8
2017-02-15T04:14:36.872Z,-1.83
2017-02-15T04:15:17.455Z,-1.82
2017-02-15T04:15:58.055Z,-1.84
2017-02-15T04:16:38.632Z,-1.76
2017-02-15T04:17:19.275Z,-1.82
2017-02-15T04:17:59.919Z,-1.8
2017-02-15T04:18:40.584Z,-1.79
2017-02-15T04:19:21.238Z,-1.86
2017-02-15T04:20:01.869Z,-1.86
2017-02-15T04:20:42.545Z,-1.84
2017-02-15T04:21:23.199Z,-1.87
2017-02-15T04:22:03.852Z,-1.84
2017-02-15T04:22:45.528Z,-1.87
2017-02-15T04:23:26.183Z,-1.83
2017-02-15T04:24:06.819Z,-1.86
2017-02-15T04:24:47.477Z,-1.84
2017-02-15T04:25:28.144Z,-1.83
2017-02-15T04:26:08.791Z,-1.9
2017-02-15T04:26:49.442Z,-1.89
2017-02-15T04:27:30.079Z,-1.87
2017-02-15T04:28:10.632Z,-1.84
2017-02-15T04:28:51.209Z,-1.92
2017-02-15T04:29:31.833Z,-1.87
2017-02-15T04:30:12.403Z,-1.87
2017-02-15T04:30:52.982Z,-1.87
2017-02-15T04:31:33.610Z,-1.94
2017-02-15T04:32:14.237Z,-1.83
2017-02-15T04:32:54.788Z,-1.9
2017-02-15T04:33:35.458Z,-1.87
2017-02-15T04:34:16.118Z,-1.87
2017-02-15T04:34:57.791Z,-1.9
2017-02-15T04:35:38.434Z,-1.79
2017-02-15T04:36:19.087Z,-1.83
2017-02-15T04:36:59.685Z,-1.87
2017-02-15T04:37:40.284Z,-1.89
2017-02-15T04:38:20.841Z,-1.8
2017-02-15T04:39:01.494Z,-1.9
2017-02-15T04:39:42.086Z,-1.87
2017-02-15T04:40:23.749Z,-1.94
2017-02-15T04:41:04.315Z,-1.89
2017-02-15T04:41:45.955Z,-1.89
2017-02-15T04:42:26.612Z,-1.92
2017-02-15T04:43:08.273Z,-1.86
2017-02-15T04:43:48.942Z,-1.92
2017-02-15T04:44:29.593Z,-1.86
2017-02-15T04:45:10.245Z,-1.9
2017-02-15T04:45:50.897Z,-1.9
2017-02-15T04:46:31.535Z,-1.89
2017-02-15T04:47:12.093Z,-1.87
2017-02-15T04:47:52.771Z,-1.94
2017-02-15T04:48:33.425Z,-1.9
2017-02-15T04:49:14.061Z,-1.86
2017-02-15T04:49:54.729Z,-1.87
2017-02-15T04:50:35.369Z,-1.87
2017-02-15T04:51:16.028Z,-1.9
2017-02-15T04:51:56.675Z,-1.98
2017-02-15T04:52:37.306Z,-1.9
2017-02-15T04:53:18.932Z,-1.95
2017-02-15T04:53:59.603Z,-1.98
2017-02-15T04:54:40.257Z,-1.89
2017-02-15T04:55:20.895Z,-1.9
2017-02-15T04:56:01.553Z,-1.89
2017-02-15T04:56:42.213Z,-1.95
2017-02-15T04:57:22.775Z,-1.89
2017-02-15T04:58:03.373Z,-1.9
2017-02-15T04:58:44.001Z,-1.89
2017-02-15T04:59:24.554Z,-1.89
2017-02-15T05:00:05.223Z,-1.98
2017-02-15T05:00:45.859Z,-1.98
2017-02-15T05:01:26.425Z,-1.92
2017-02-15T05:02:07.083Z,-2.01
2017-02-15T05:02:47.737Z,-2.01
2017-02-15T05:03:28.369Z,-1.97
2017-02-15T05:04:09.023Z,-2.01
2017-02-15T05:04:49.673Z,-2.02
2017-02-15T05:05:30.326Z,-2.01
2017-02-15T05:06:10.978Z,-2.01
2017-02-15T05:06:51.632Z,-2
2017-02-15T05:07:32.286Z,-2.02
2017-02-15T05:08:12.943Z,-2.02
2017-02-15T05:08:53.590Z,-1.97
2017-02-15T05:09:34.246Z,-1.98
2017-02-15T05:10:14.895Z,-1.94
2017-02-15T05:10:55.549Z,-1.97
2017-02-15T05:11:36.201Z,-2.01
2017-02-15T05:12:16.782Z,-1.95
2017-02-15T05:12:57.449Z,-2.01
2017-02-15T05:13:38.081Z,-2.01
2017-02-15T05:14:18.747Z,-2.02
2017-02-15T05:14:59.389Z,-2
2017-02-15T05:15:40.035Z,-2.01
2017-02-15T05:16:20.692Z,-2.02
2017-02-15T05:17:01.346Z,-2.01
2017-02-15T05:17:42.004Z,-2.02
2017-02-15T05:18:22.624Z,-2.04
2017-02-15T05:19:03.246Z,-1.94
2017-02-15T05:19:43.859Z,-1.92
2017-02-15T05:20:24.503Z,-1.97
2017-02-15T05:21:05.163Z,-2.04
2017-02-15T05:21:45.805Z,-2.02
2017-02-15T05:22:27.389Z,-2.07
2017-02-15T05:23:08.040Z,-2.08
2017-02-15T05:23:48.690Z,-2.01
2017-02-15T05:24:29.346Z,-2.07
2017-02-15T05:25:09.991Z,-2.01
2017-02-15T05:25:50.656Z,-2.02
2017-02-15T05:26:31.335Z,-1.98
2017-02-15T05:27:11.970Z,-2.02
2017-02-15T05:27:53.629Z,-1.97
2017-02-15T05:28:34.295Z,-2.01
2017-02-15T05:29:14.955Z,-1.98
2017-02-15T05:29:56.631Z,-1.92
2017-02-15T05:30:37.271Z,-2.08
2017-02-15T05:31:17.920Z,-2.04
2017-02-15T05:31:58.585Z,-1.98
2017-02-15T05:32:39.161Z,-1.98
2017-02-15T05:33:19.741Z,-2
2017-02-15T05:34:00.342Z,-1.97
2017-02-15T05:34:40.984Z,-2.16
2017-02-15T05:35:21.652Z,-2
2017-02-15T05:36:02.297Z,-2.04
2017-02-15T05:36:42.945Z,-2.01
2017-02-15T05:37:23.596Z,-1.98
2017-02-15T05:38:04.254Z,-2.02
2017-02-15T05:38:44.899Z,-2.08
2017-02-15T05:39:25.585Z,-2.01
2017-02-15T05:40:06.200Z,-2.05
2017-02-15T05:40:46.863Z,-2
2017-02-15T05:41:27.527Z,-2.05
2017-02-15T05:42:08.180Z,-2.01
2017-02-15T05:42:48.820Z,-2
2017-02-15T05:43:29.467Z,-1.95
2017-02-15T05:44:10.134Z,-1.98
2017-02-15T05:44:50.783Z,-2.02
2017-02-15T05:45:31.432Z,-2.02
2017-02-15T05:46:12.080Z,-2.05
2017-02-15T05:46:52.734Z,-2.04
2017-02-15T05:47:33.398Z,-2.01
2017-02-15T05:48:14.043Z,-2.05
2017-02-15T05:48:54.868Z,-2
2017-02-15T05:49:35.449Z,-2
2017-02-15T05:50:16.094Z,-1.98
2017-02-15T05:50:56.764Z,-2.05
2017-02-15T05:51:37.417Z,-2.01
2017-02-15T05:52:18.045Z,-2.02
2017-02-15T05:52:58.617Z,-2
2017-02-15T05:53:39.256Z,-2
2017-02-15T05:54:19.903Z,-2.02
2017-02-15T05:55:00.476Z,-2.01
2017-02-15T05:55:41.129Z,-2.04
2017-02-15T05:56:21.756Z,-2
2017-02-15T05:57:02.312Z,-2.04
2017-02-15T05:57:42.922Z,-2.05
2017-02-15T05:58:23.512Z,-2.02
2017-02-15T05:59:04.111Z,-2.13
2017-02-15T05:59:44.669Z,-2.1
2017-02-15T06:00:25.244Z,-2.02
2017-02-15T06:01:06.904Z,-2.08
2017-02-15T06:01:47.489Z,-2.07
2017-02-15T06:02:28.049Z,-2.13
2017-02-15T06:03:08.665Z,-2.07
2017-02-15T06:03:49.299Z,-2.12
2017-02-15T06:04:29.865Z,-2.19
2017-02-15T06:05:10.512Z,-2.13
2017-02-15T06:05:51.152Z,-2.04
2017-02-15T06:06:31.737Z,-2.05
2017-02-15T06:07:12.388Z,-2.18
2017-02-15T06:07:53.027Z,-2.04
2017-02-15T06:08:33.680Z,-2.1
2017-02-15T06:09:14.337Z,-2.13
2017-02-15T06:09:54.985Z,-2.04
2017-02-15T06:10:35.657Z,-2.19
2017-02-15T06:11:16.296Z,-2.19
2017-02-15T06:11:56.947Z,-2.16
2017-02-15T06:12:38.025Z,-2.1
2017-02-15T06:13:18.589Z,-2.15
2017-02-15T06:13:59.156Z,-2.1
2017-02-15T06:14:39.800Z,-2.04
2017-02-15T06:15:20.386Z,-2
2017-02-15T06:16:01.060Z,-2.01
2017-02-15T06:16:41.703Z,-1.94
2017-02-15T06:17:22.355Z,-2.01
2017-02-15T06:18:03.008Z,-1.97
2017-02-15T06:18:43.660Z,-2.05
2017-02-15T06:19:24.316Z,-2.02
2017-02-15T06:20:04.969Z,-2
2017-02-15T06:20:45.633Z,-2.04
2017-02-15T06:21:26.280Z,-2.01
2017-02-15T06:22:06.847Z,-1.97
2017-02-15T06:22:47.499Z,-2.04
2017-02-15T06:23:28.191Z,-2.01
2017-02-15T06:24:08.886Z,-2
2017-02-15T06:24:49.466Z,-2.02
2017-02-15T06:25:30.108Z,-2.04
2017-02-15T06:26:10.696Z,-2.02
2017-02-15T06:26:51.301Z,-2.05
2017-02-15T06:27:31.869Z,-2.04
2017-02-15T06:28:12.546Z,-2.01
2017-02-15T06:28:53.203Z,-2.05
2017-02-15T06:29:33.859Z,-2.04
2017-02-15T06:30:14.514Z,-2.02
2017-02-15T06:30:55.165Z,-2.04
2017-02-15T06:31:35.819Z,-2.04
2017-02-15T06:32:16.424Z,-2.02
2017-02-15T06:32:56.992Z,-2.01
2017-02-15T06:33:37.645Z,-2
2017-02-15T06:34:19.350Z,-1.98
2017-02-15T06:34:59.953Z,-2.02
2017-02-15T06:35:40.531Z,-2.02
2017-02-15T06:36:21.176Z,-2.04
2017-02-15T06:37:01.754Z,-2.02
2017-02-15T06:37:42.410Z,-2.05
2017-02-15T06:38:23.056Z,-2.12
2017-02-15T06:39:03.719Z,-2.15
2017-02-15T06:39:44.366Z,-2.1
2017-02-15T06:40:25.021Z,-2.05
2017-02-15T06:41:05.678Z,-2
2017-02-15T06:41:46.269Z,-2
2017-02-15T06:42:26.930Z,-2.04
2017-02-15T06:43:07.575Z,-2.07
2017-02-15T06:43:48.236Z,-1.97
2017-02-15T06:44:28.907Z,-1.95
2017-02-15T06:45:09.538Z,-2.02
2017-02-15T06:45:50.190Z,-1.97
2017-02-15T06:46:30.844Z,-2.01
2017-02-15T06:47:11.413Z,-2.01
2017-02-15T06:47:52.069Z,-2.02
2017-02-15T06:48:32.702Z,-2.04
2017-02-15T06:49:13.262Z,-2.02
2017-02-15T06:49:53.915Z,-2.05
2017-02-15T06:50:34.558Z,-2.01
2017-02-15T06:51:15.121Z,-1.98
2017-02-15T06:51:55.787Z,-1.98
2017-02-15T06:52:36.408Z,-1.98
2017-02-15T06:53:17.067Z,-1.95
2017-02-15T06:53:57.723Z,-1.95
2017-02-15T06:54:38.366Z,-2
2017-02-15T06:55:19.024Z,-1.94
2017-02-15T06:55:59.597Z,-2.04
2017-02-15T06:56:40.255Z,-1.98
2017-02-15T06:57:20.901Z,-1.95
2017-02-15T06:58:01.536Z,-1.89
2017-02-15T06:58:42.211Z,-1.89
2017-02-15T06:59:22.862Z,-1.9
2017-02-15T07:00:03.564Z,-1.83
2017-02-15T07:00:44.197Z,-1.92
2017-02-15T07:01:24.812Z,-1.89
2017-02-15T07:02:05.665Z,-1.94
2017-02-15T07:02:46.371Z,-1.89
2017-02-15T07:03:27.268Z,-1.9
2017-02-15T07:04:07.835Z,-1.89
2017-02-15T07:04:48.531Z,-1.87
2017-02-15T07:05:29.187Z,-1.9
2017-02-15T07:06:09.777Z,-1.8
2017-02-15T07:06:50.350Z,-1.92
2017-02-15T07:07:31.006Z,-1.83
2017-02-15T07:08:11.692Z,-1.84
2017-02-15T07:08:52.293Z,-1.82
2017-02-15T07:09:32.885Z,-1.79
2017-02-15T07:10:13.453Z,-1.77
2017-02-15T07:10:54.057Z,-1.76
2017-02-15T07:11:35.674Z,-1.79
2017-02-15T07:12:16.273Z,-1.79
2017-02-15T07:12:56.921Z,-1.79
2017-02-15T07:13:37.575Z,-1.76
2017-02-15T07:14:18.229Z,-1.82
2017-02-15T07:14:58.888Z,-1.74
2017-02-15T07:15:39.532Z,-1.71
2017-02-15T07:16:20.186Z,-1.66
2017-02-15T07:17:00.840Z,-1.69
2017-02-15T07:17:41.411Z,-1.64
2017-02-15T07:18:22.074Z,-1.68
2017-02-15T07:19:02.756Z,-1.65
2017-02-15T07:19:43.347Z,-1.74
2017-02-15T07:20:23.938Z,-1.68
2017-02-15T07:21:04.578Z,-1.69
2017-02-15T07:21:46.183Z,-1.69
2017-02-15T07:22:27.807Z,-1.71
2017-02-15T07:23:08.387Z,-1.59
2017-02-15T07:23:49.025Z,-1.61
2017-02-15T07:24:29.620Z,-1.64
2017-02-15T07:25:10.209Z,-1.65
2017-02-15T07:25:50.779Z,-1.64
2017-02-15T07:26:32.348Z,-1.62
2017-02-15T07:27:12.945Z,-1.58
2017-02-15T07:27:53.590Z,-1.58
2017-02-15T07:28:34.251Z,-1.53
2017-02-15T07:29:14.906Z,-1.61
2017-02-15T07:29:55.557Z,-1.53
2017-02-15T07:30:36.208Z,-1.54
2017-02-15T07:31:16.862Z,-1.48
2017-02-15T07:32:02.215Z,-1.54
2017-02-15T07:32:42.840Z,-1.5
2017-02-15T07:33:23.491Z,-1.54
2017-02-15T07:34:04.147Z,-1.48
2017-02-15T07:34:44.793Z,-1.54
2017-02-15T07:35:25.451Z,-1.46
2017-02-15T07:36:06.110Z,-1.46
2017-02-15T07:36:46.795Z,-1.54
2017-02-15T07:37:27.407Z,-1.5
2017-02-15T07:38:08.068Z,-1.47
2017-02-15T07:38:48.708Z,-1.41
2017-02-15T07:39:29.374Z,-1.41
2017-02-15T07:40:10.019Z,-1.4
2017-02-15T07:40:50.670Z,-1.38
2017-02-15T07:41:31.328Z,-1.38
2017-02-15T07:42:11.979Z,-1.4
2017-02-15T07:42:52.639Z,-1.33
2017-02-15T07:43:33.279Z,-1.32
2017-02-15T07:44:13.930Z,-1.37
2017-02-15T07:44:54.596Z,-1.35
2017-02-15T07:45:35.303Z,-1.3
2017-02-15T07:46:15.901Z,-1.29
2017-02-15T07:46:56.585Z,-1.27
2017-02-15T07:47:37.199Z,-1.27
2017-02-15T07:48:17.869Z,-1.27
2017-02-15T07:48:58.530Z,-1.27
2017-02-15T07:49:39.161Z,-1.22
2017-02-15T07:50:19.803Z,-1.23
2017-02-15T07:51:00.473Z,-1.22
2017-02-15T07:51:41.012Z,-1.22
2017-02-15T07:52:21.675Z,-1.12
2017-02-15T07:53:02.273Z,-1.15
2017-02-15T07:53:42.862Z,-1.22
2017-02-15T07:54:23.469Z,-1.15
2017-02-15T07:55:06.125Z,-1.09
2017-02-15T07:55:46.713Z,-1.15
2017-02-15T07:56:27.315Z,-1.07
2017-02-15T07:57:07.878Z,-1.05
2017-02-15T07:57:48.526Z,-0.97
2017-02-15T07:58:29.167Z,-1.05
2017-02-15T07:59:09.847Z,-1.01
2017-02-15T07:59:50.514Z,-0.96
2017-02-15T08:00:31.150Z,-0.97
2017-02-15T08:01:11.793Z,-0.85
2017-02-15T08:01:52.435Z,-0.96
2017-02-15T08:02:33.089Z,-0.94
2017-02-15T08:03:14.736Z,-0.91
2017-02-15T08:03:55.331Z,-0.82
2017-02-15T08:04:36.002Z,-0.75
2017-02-15T08:05:16.649Z,-0.89
2017-02-15T08:05:57.281Z,-0.74
2017-02-15T08:06:37.962Z,-0.7
2017-02-15T08:07:18.592Z,-0.7
2017-02-15T08:07:59.269Z,-0.65
2017-02-15T08:08:39.892Z,-0.68
2017-02-15T08:09:20.536Z,-0.72
2017-02-15T08:10:01.214Z,-0.64
2017-02-15T08:10:41.851Z,-0.7
2017-02-15T08:11:22.514Z,-0.67
2017-02-15T08:12:03.152Z,-0.64
2017-02-15T08:12:43.814Z,-0.64
2017-02-15T08:13:24.477Z,-0.61
2017-02-15T08:14:06.153Z,-0.54
2017-02-15T08:14:46.719Z,-0.56
2017-02-15T08:15:27.368Z,-0.56
2017-02-15T08:16:08.010Z,-0.54
2017-02-15T08:16:48.667Z,-0.39
2017-02-15T08:17:29.312Z,-0.52
2017-02-15T08:18:09.945Z,-0.43
2017-02-15T08:18:50.627Z,-0.36
2017-02-15T08:19:31.258Z,-0.35
2017-02-15T08:20:11.906Z,-0.28
2017-02-15T08:20:52.596Z,-0.36
2017-02-15T08:21:33.260Z,-0.34
2017-02-15T08:22:13.865Z,-0.28
2017-02-15T08:22:55.496Z,-0.25
2017-02-15T08:23:36.090Z,-0.21
2017-02-15T08:24:16.765Z,-0.26
2017-02-15T08:24:57.422Z,-0.25
2017-02-15T08:25:38.059Z,-0.18
2017-02-15T08:26:18.723Z,-0.26
2017-02-15T08:26:59.383Z,-0.18
2017-02-15T08:27:40.026Z,-0.14
2017-02-15T08:28:20.611Z,-0.15
2017-02-15T08:29:01.213Z,-0.17
2017-02-15T08:29:41.789Z,-0.11
2017-02-15T08:30:22.447Z,-0.03
2017-02-15T08:31:03.121Z,0
2017-02-15T08:31:43.695Z,0.03
2017-02-15T08:32:24.326Z,0.07
2017-02-15T08:33:04.998Z,0.07
2017-02-15T08:33:45.630Z,0.03
2017-02-15T08:34:27.207Z,0.04
2017-02-15T08:35:07.854Z,0.03
2017-02-15T08:35:48.514Z,0.19
2017-02-15T08:36:29.182Z,0.04
2017-02-15T08:37:09.825Z,0.21
2017-02-15T08:37:50.419Z,0.23
2017-02-15T08:38:30.965Z,0.21
2017-02-15T08:39:12.645Z,0.31
2017-02-15T08:39:53.206Z,0.26
2017-02-15T08:40:33.862Z,0.34
2017-02-15T08:41:14.501Z,0.26
2017-02-15T08:41:55.049Z,0.34
2017-02-15T08:42:35.712Z,0.36
2017-02-15T08:43:16.319Z,0.34
2017-02-15T08:43:57.934Z,0.4
2017-02-15T08:44:38.490Z,0.47
2017-02-15T08:45:19.156Z,0.56
2017-02-15T08:45:59.765Z,0.47
2017-02-15T08:46:40.337Z,0.58
2017-02-15T08:47:20.899Z,0.63